createdAt,value
2022-08-11T00:01:07.635Z,100.00
2022-08-11T00:03:43.778Z,100.00
2022-08-11T00:06:13.921Z,100.00
2022-08-11T00:08:41.668Z,100.00
2022-08-11T00:11:09.966Z,100.00
2022-08-11T00:13:39.977Z,100.00
2022-08-11T00:16:18.905Z,100.00
2022-08-11T00:18:54.326Z,100.00
2022-08-11T00:22:03.094Z,100.00
2022-08-11T00:24:10.799Z,100.00
2022-08-11T00:26:37.504Z,100.00
2022-08-11T00:29:11.780Z,100.00
2022-08-11T00:31:43.380Z,100.00
2022-08-11T00:34:12.629Z,100.00
2022-08-11T00:36:48.884Z,100.00
2022-08-11T00:39:17.845Z,100.00
2022-08-11T00:42:00.727Z,100.00
2022-08-11T00:44:44.946Z,100.00
2022-08-11T00:47:28.263Z,100.00
2022-08-11T00:49:57.704Z,100.00
2022-08-11T00:52:47.270Z,100.00
2022-08-11T00:55:33.225Z,100.00
2022-08-11T00:58:22.522Z,100.00
2022-08-11T01:01:01.343Z,100.00
2022-08-11T01:03:55.995Z,100.00
2022-08-11T01:06:49.565Z,100.00
2022-08-11T01:09:34.723Z,100.00
2022-08-11T01:12:07.188Z,100.00
2022-08-11T01:14:58.378Z,100.00
2022-08-11T01:17:49.329Z,100.00
2022-08-11T01:20:53.248Z,100.00
2022-08-11T01:23:57.462Z,100.00
2022-08-11T01:27:00.933Z,100.00
2022-08-11T01:30:04.615Z,100.00
2022-08-11T01:33:13.129Z,100.00
2022-08-11T01:35:56.394Z,100.00
2022-08-11T01:38:44.432Z,100.00
2022-08-11T01:41:52.257Z,100.00
2022-08-11T01:44:46.463Z,100.00
2022-08-11T01:47:54.259Z,100.00
2022-08-11T01:50:39.662Z,100.00
2022-08-11T01:53:22.094Z,100.00
2022-08-11T01:55:55.068Z,100.00
2022-08-11T01:58:59.425Z,100.00
2022-08-11T02:01:44.285Z,100.00
2022-08-11T02:04:47.060Z,100.00
2022-08-11T02:07:18.863Z,100.00
2022-08-11T02:10:42.531Z,100.00
2022-08-11T02:13:36.546Z,100.00
2022-08-11T02:16:15.436Z,100.00
2022-08-11T02:19:09.118Z,100.00
2022-08-11T02:22:20.178Z,100.00
2022-08-11T02:25:00.466Z,100.00
2022-08-11T02:27:38.703Z,100.00
2022-08-11T02:30:11.326Z,100.00
2022-08-11T02:33:08.977Z,100.00
2022-08-11T02:35:47.226Z,100.00
2022-08-11T02:38:37.639Z,100.00
2022-08-11T02:41:43.676Z,100.00
2022-08-11T02:44:36.546Z,100.00
2022-08-11T02:47:28.126Z,100.00
2022-08-11T02:50:15.691Z,100.00
2022-08-11T02:52:59.587Z,100.00
2022-08-11T02:55:56.486Z,100.00
2022-08-11T02:58:27.886Z,100.00
2022-08-11T03:01:19.747Z,100.00
2022-08-11T03:04:06.950Z,100.00
2022-08-11T03:06:45.197Z,100.00
2022-08-11T03:09:19.258Z,100.00
2022-08-11T03:12:28.039Z,100.00
2022-08-11T03:15:32.082Z,100.00
2022-08-11T03:18:07.307Z,100.00
2022-08-11T03:21:07.323Z,100.00
2022-08-11T03:23:39.380Z,100.00
2022-08-11T03:26:09.996Z,100.00
2022-08-11T03:29:04.610Z,100.00
2022-08-11T03:31:37.097Z,100.00
2022-08-11T03:34:16.267Z,100.00
2022-08-11T03:37:16.528Z,100.00
2022-08-11T03:39:59.773Z,100.00
2022-08-11T03:42:54.600Z,100.00
2022-08-11T03:45:43.615Z,100.00
2022-08-11T03:48:25.204Z,100.00
2022-08-11T03:51:14.067Z,100.00
2022-08-11T03:54:19.811Z,100.00
2022-08-11T03:57:23.744Z,100.00
2022-08-11T04:00:03.905Z,100.00
2022-08-11T04:02:52.078Z,100.00
2022-08-11T04:05:46.376Z,100.00
2022-08-11T04:08:49.881Z,100.00
2022-08-11T04:11:28.254Z,100.00
2022-08-11T04:14:25.563Z,100.00
2022-08-11T04:17:23.322Z,100.00
2022-08-11T04:20:01.931Z,100.00
2022-08-11T04:22:50.101Z,100.00
2022-08-11T04:25:23.076Z,100.00
2022-08-11T04:28:07.652Z,100.00
2022-08-11T04:30:59.002Z,100.00
2022-08-11T04:33:53.803Z,100.00
2022-08-11T04:36:55.982Z,100.00
2022-08-11T04:39:44.173Z,100.00
2022-08-11T04:43:11.060Z,100.00
2022-08-11T04:46:15.233Z,100.00
2022-08-11T04:49:37.579Z,100.00
2022-08-11T04:52:37.710Z,100.00
2022-08-11T04:55:51.584Z,100.00
2022-08-11T04:58:43.706Z,100.00
2022-08-11T05:01:43.537Z,100.00
2022-08-11T05:04:28.653Z,100.00
2022-08-11T05:07:13.597Z,100.00
2022-08-11T05:10:09.395Z,100.00
2022-08-11T05:13:21.291Z,100.00
2022-08-11T05:16:11.672Z,100.00
2022-08-11T05:19:07.555Z,100.00
2022-08-11T05:21:54.392Z,97.51
2022-08-11T05:24:48.868Z,68.83
2022-08-11T05:27:35.248Z,56.74
2022-08-11T05:30:25.102Z,51.78
2022-08-11T05:33:29.076Z,48.45
2022-08-11T05:36:05.754Z,45.72
2022-08-11T05:38:54.647Z,44.92
2022-08-11T05:41:45.406Z,43.56
2022-08-11T05:44:37.391Z,46.59
2022-08-11T05:47:23.125Z,51.37
2022-08-11T05:50:13.696Z,54.81
2022-08-11T05:53:04.635Z,50.52
2022-08-11T05:56:02.361Z,54.91
2022-08-11T05:58:42.724Z,66.04
2022-08-11T06:01:12.082Z,81.49
2022-08-11T06:03:58.746Z,92.50
2022-08-11T06:06:27.535Z,100.00
2022-08-11T06:08:58.566Z,100.00
2022-08-11T06:11:44.308Z,100.00
2022-08-11T06:14:12.684Z,100.00
2022-08-11T06:16:41.949Z,100.00
2022-08-11T06:19:09.646Z,100.00
2022-08-11T06:21:37.602Z,100.00
2022-08-11T06:24:11.435Z,100.00
2022-08-11T06:26:55.072Z,100.00
2022-08-11T06:29:37.624Z,100.00
2022-08-11T06:32:13.775Z,100.00
2022-08-11T06:35:03.825Z,100.00
2022-08-11T06:38:09.338Z,100.00
2022-08-11T06:40:43.550Z,100.00
2022-08-11T06:43:21.038Z,100.00
2022-08-11T06:46:05.860Z,100.00
2022-08-11T06:48:33.866Z,100.00
2022-08-11T06:51:14.473Z,100.00
2022-08-11T06:54:03.373Z,100.00
2022-08-11T06:57:18.614Z,100.00
2022-08-11T07:00:00.071Z,100.00
2022-08-11T07:02:33.653Z,100.00
2022-08-11T07:05:08.088Z,98.80
2022-08-11T07:07:53.227Z,98.31
2022-08-11T07:11:05.362Z,98.87
2022-08-11T07:13:54.342Z,98.42
2022-08-11T07:16:28.983Z,100.00
2022-08-11T07:19:20.641Z,100.00
2022-08-11T07:22:07.366Z,97.00
2022-08-11T07:25:13.948Z,87.20
2022-08-11T07:28:04.729Z,89.68
2022-08-11T07:30:34.407Z,88.35
2022-08-11T07:33:02.992Z,76.03
2022-08-11T07:35:35.964Z,71.69
2022-08-11T07:38:07.166Z,66.46
2022-08-11T07:40:35.285Z,62.12
2022-08-11T07:43:03.857Z,64.22
2022-08-11T07:45:49.380Z,63.48
2022-08-11T07:48:35.563Z,61.24
2022-08-11T07:51:21.519Z,60.32
2022-08-11T07:53:58.647Z,59.25
2022-08-11T07:56:55.627Z,59.95
2022-08-11T07:59:59.841Z,55.92
2022-08-11T08:02:44.288Z,53.33
2022-08-11T08:05:29.614Z,53.91
2022-08-11T08:08:14.492Z,52.30
2022-08-11T08:11:02.931Z,51.14
2022-08-11T08:13:50.716Z,52.37
2022-08-11T08:16:36.070Z,50.60
2022-08-11T08:19:02.567Z,51.38
2022-08-11T08:21:29.165Z,49.68
2022-08-11T08:23:58.686Z,50.18
2022-08-11T08:26:48.264Z,48.03
2022-08-11T08:29:38.272Z,48.50
2022-08-11T08:32:05.424Z,49.06
2022-08-11T08:34:33.881Z,46.49
2022-08-11T08:37:00.825Z,48.59
2022-08-11T08:39:27.397Z,46.72
2022-08-11T08:41:56.978Z,49.77
2022-08-11T08:44:38.262Z,45.74
2022-08-11T08:47:10.508Z,45.82
2022-08-11T08:49:41.984Z,45.42
2022-08-11T08:52:26.273Z,44.30
2022-08-11T08:55:02.129Z,46.21
2022-08-11T08:57:32.752Z,46.14
2022-08-11T09:00:13.812Z,45.36
2022-08-11T09:02:44.361Z,43.68
2022-08-11T09:05:11.968Z,45.20
2022-08-11T09:07:40.714Z,44.91
2022-08-11T09:10:10.355Z,43.92
2022-08-11T09:12:41.318Z,43.60
2022-08-11T09:15:10.256Z,44.06
2022-08-11T09:18:05.865Z,43.08
2022-08-11T09:20:34.891Z,43.92
2022-08-11T09:26:32.888Z,42.75
2022-08-11T09:29:00.967Z,40.43
2022-08-11T09:31:38.724Z,39.81
2022-08-11T09:34:06.892Z,39.30
2022-08-11T09:36:52.934Z,39.75
2022-08-11T09:39:38.808Z,38.60
2022-08-11T09:42:06.492Z,37.43
2022-08-11T09:44:50.780Z,36.16
2022-08-11T09:47:21.227Z,35.60
2022-08-11T09:49:48.964Z,35.77
2022-08-11T09:52:16.013Z,35.29
2022-08-11T09:54:47.996Z,35.95
2022-08-11T09:57:36.621Z,34.96
2022-08-11T10:00:12.811Z,35.52
2022-08-11T10:02:47.247Z,35.62
2022-08-11T10:05:36.359Z,36.47
2022-08-11T10:08:05.100Z,35.50
2022-08-11T10:10:35.923Z,34.08
2022-08-11T10:14:29.361Z,34.75
2022-08-11T10:16:14.701Z,34.81
2022-08-11T10:18:52.422Z,34.08
2022-08-11T10:21:28.364Z,34.31
2022-08-11T10:24:17.341Z,35.59
2022-08-11T10:26:57.185Z,34.38
2022-08-11T10:29:49.862Z,34.68
2022-08-11T10:32:58.967Z,33.52
2022-08-11T10:35:32.066Z,33.59
2022-08-11T10:38:07.782Z,33.69
2022-08-11T10:40:38.639Z,32.94
2022-08-11T10:43:13.399Z,33.31
2022-08-11T10:46:01.605Z,32.77
2022-08-11T10:48:30.480Z,32.53
2022-08-11T10:51:13.667Z,32.29
2022-08-11T10:54:04.194Z,31.73
2022-08-11T10:56:53.519Z,32.40
2022-08-11T10:59:22.192Z,32.03
2022-08-11T11:01:50.109Z,31.53
2022-08-11T11:04:27.205Z,31.97
2022-08-11T11:07:03.670Z,31.06
2022-08-11T11:09:34.141Z,31.90
2022-08-11T11:12:44.557Z,32.15
2022-08-11T11:15:31.548Z,30.93
2022-08-11T11:18:04.738Z,30.93
2022-08-11T11:21:06.430Z,30.00
2022-08-11T11:23:40.513Z,31.36
2022-08-11T11:26:34.751Z,31.41
2022-08-11T11:29:29.224Z,31.00
2022-08-11T11:32:11.820Z,30.16
2022-08-11T11:34:52.732Z,29.96
2022-08-11T11:37:22.981Z,29.60
2022-08-11T11:39:50.400Z,29.60
2022-08-11T11:42:18.532Z,29.65
2022-08-11T11:44:46.815Z,29.62
2022-08-11T11:47:13.847Z,30.46
2022-08-11T11:49:44.075Z,30.19
2022-08-11T11:52:19.602Z,30.41
2022-08-11T11:54:50.114Z,30.78
2022-08-11T11:57:36.519Z,29.42
2022-08-11T12:00:33.047Z,29.46
2022-08-11T12:03:05.435Z,28.83
2022-08-11T12:05:34.545Z,30.35
2022-08-11T12:08:17.949Z,30.15
2022-08-11T12:11:11.759Z,30.28
2022-08-11T12:13:41.027Z,30.03
2022-08-11T12:16:34.371Z,29.75
2022-08-11T12:18:59.797Z,29.96
2022-08-11T12:21:28.267Z,29.40
2022-08-11T12:24:20.933Z,30.16
2022-08-11T12:27:14.677Z,29.31
2022-08-11T12:29:35.381Z,28.41
2022-08-11T12:32:06.767Z,28.54
2022-08-11T12:34:33.249Z,28.10
2022-08-11T12:37:05.577Z,28.48
2022-08-11T12:40:10.728Z,29.04
2022-08-11T12:43:04.032Z,29.41
2022-08-11T12:45:37.612Z,28.62
2022-08-11T12:48:57.626Z,29.19
2022-08-11T12:52:11.466Z,28.25
2022-08-11T12:55:06.614Z,29.15
2022-08-11T12:57:57.855Z,27.53
2022-08-11T13:00:45.865Z,27.82
2022-08-11T13:03:32.429Z,27.54
2022-08-11T13:06:02.588Z,28.59
2022-08-11T13:08:37.858Z,29.18
2022-08-11T13:11:23.917Z,28.55
2022-08-11T13:13:57.390Z,28.29
2022-08-11T13:16:29.573Z,27.46
2022-08-11T13:19:02.892Z,27.20
2022-08-11T13:21:30.554Z,27.05
2022-08-11T13:23:59.625Z,27.34
2022-08-11T13:26:47.763Z,26.64
2022-08-11T13:29:21.259Z,26.04
2022-08-11T13:31:49.146Z,26.46
2022-08-11T13:34:17.909Z,26.44
2022-08-11T13:36:49.581Z,26.49
2022-08-11T13:39:16.617Z,26.29
2022-08-11T13:41:45.132Z,26.28
2022-08-11T13:44:15.920Z,25.88
2022-08-11T13:46:45.113Z,25.86
2022-08-11T13:49:15.889Z,26.39
2022-08-11T13:51:43.363Z,26.14
2022-08-11T13:54:15.712Z,26.12
2022-08-11T13:56:45.201Z,25.68
2022-08-11T13:59:14.528Z,24.77
2022-08-11T14:02:19.560Z,26.45
2022-08-11T14:04:41.378Z,26.16
2022-08-11T14:07:10.475Z,25.68
2022-08-11T14:09:39.963Z,25.24
2022-08-11T14:12:34.243Z,24.96
2022-08-11T14:15:12.464Z,25.36
2022-08-11T14:17:47.817Z,26.47
2022-08-11T14:20:39.632Z,25.46
2022-08-11T14:23:05.939Z,24.59
2022-08-11T14:25:59.981Z,25.01
2022-08-11T14:28:31.652Z,25.28
2022-08-11T14:31:02.760Z,25.54
2022-08-11T14:34:00.107Z,26.36
2022-08-11T14:36:20.772Z,25.84
2022-08-11T14:38:48.108Z,25.21
2022-08-11T14:41:34.116Z,25.14
2022-08-11T14:44:19.574Z,24.69
2022-08-11T14:47:04.881Z,25.24
2022-08-11T14:49:58.407Z,25.10
2022-08-11T14:52:38.252Z,25.17
2022-08-11T14:55:23.914Z,24.71
2022-08-11T14:57:55.447Z,25.82
2022-08-11T15:00:23.902Z,25.50
2022-08-11T15:03:10.449Z,25.38
2022-08-11T15:06:12.967Z,24.49
2022-08-11T15:08:55.126Z,25.54
2022-08-11T15:11:48.792Z,25.34
2022-08-11T15:14:39.269Z,24.62
2022-08-11T15:17:10.108Z,25.30
2022-08-11T15:20:00.442Z,25.06
2022-08-11T15:22:46.083Z,25.48
2022-08-11T15:25:13.025Z,25.54
2022-08-11T15:28:00.979Z,25.33
2022-08-11T15:30:46.401Z,25.28
2022-08-11T15:33:35.481Z,25.26
2022-08-11T15:36:24.047Z,25.44
2022-08-11T15:38:59.703Z,24.53
2022-08-11T15:42:00.391Z,24.77
2022-08-11T15:45:02.837Z,25.32
2022-08-11T15:47:37.636Z,24.92
2022-08-11T15:50:10.430Z,25.09
2022-08-11T15:52:55.824Z,24.94
2022-08-11T15:55:23.678Z,24.18
2022-08-11T15:58:11.799Z,25.36
2022-08-11T16:01:03.928Z,25.27
2022-08-11T16:04:06.797Z,25.49
2022-08-11T16:06:38.002Z,25.68
2022-08-11T16:09:18.037Z,25.36
2022-08-11T16:11:46.467Z,25.34
2022-08-11T16:14:34.199Z,26.03
2022-08-11T16:17:03.050Z,25.17
2022-08-11T16:19:36.032Z,25.53
2022-08-11T16:22:07.200Z,25.44
2022-08-11T16:27:02.257Z,26.03
2022-08-11T16:27:24.790Z,25.67
2022-08-11T16:29:52.892Z,25.93
2022-08-11T16:32:23.330Z,25.48
2022-08-11T16:35:19.771Z,25.56
2022-08-11T16:38:06.103Z,25.75
2022-08-11T16:40:33.863Z,25.74
2022-08-11T16:43:22.233Z,25.57
2022-08-11T16:46:08.047Z,26.28
2022-08-11T16:48:38.459Z,26.71
2022-08-11T16:51:12.118Z,26.29
2022-08-11T16:53:50.125Z,26.76
2022-08-11T16:56:49.526Z,26.49
2022-08-11T16:59:22.439Z,26.50
2022-08-11T17:02:03.198Z,25.62
2022-08-11T17:04:57.563Z,26.36
2022-08-11T17:07:44.883Z,26.34
2022-08-11T17:10:51.214Z,26.97
2022-08-11T17:13:27.936Z,26.98
2022-08-11T17:16:06.787Z,27.17
2022-08-11T17:19:18.394Z,27.35
2022-08-11T17:22:24.485Z,28.38
2022-08-11T17:24:53.162Z,28.14
2022-08-11T17:27:23.003Z,28.48
2022-08-11T17:29:56.218Z,28.77
2022-08-11T17:32:56.730Z,29.26
2022-08-11T17:35:31.089Z,29.47
2022-08-11T17:38:20.273Z,28.88
2022-08-11T17:41:18.691Z,28.33
2022-08-11T17:44:11.339Z,29.39
2022-08-11T17:47:02.264Z,29.65
2022-08-11T17:49:37.200Z,30.32
2022-08-11T17:52:24.879Z,29.40
2022-08-11T17:55:11.236Z,29.03
2022-08-11T17:58:00.164Z,29.74
2022-08-11T18:00:26.690Z,30.43
2022-08-11T18:03:14.789Z,29.87
2022-08-11T18:05:44.404Z,29.99
2022-08-11T18:08:32.019Z,30.59
2022-08-11T18:12:00.034Z,30.88
2022-08-11T18:14:27.289Z,31.09
2022-08-11T18:17:12.120Z,32.97
2022-08-11T18:19:57.456Z,32.71
2022-08-11T18:22:48.384Z,32.34
2022-08-11T18:25:43.261Z,34.90
2022-08-11T18:28:33.720Z,35.79
2022-08-11T18:31:21.129Z,37.52
2022-08-11T18:34:20.093Z,38.27
2022-08-11T18:37:20.011Z,38.75
2022-08-11T18:40:31.381Z,39.94
2022-08-11T18:43:25.017Z,40.02
2022-08-11T18:46:16.055Z,41.79
2022-08-11T18:49:14.542Z,42.63
2022-08-11T18:52:06.355Z,44.06
2022-08-11T18:54:55.195Z,45.13
2022-08-11T18:57:49.788Z,45.62
2022-08-11T19:00:41.151Z,46.45
2022-08-11T19:03:28.432Z,47.79
2022-08-11T19:06:38.478Z,49.12
2022-08-11T19:09:25.751Z,49.93
2022-08-11T19:12:12.600Z,51.54
2022-08-11T19:15:00.212Z,53.77
2022-08-11T19:17:48.736Z,54.45
2022-08-11T19:20:38.315Z,56.50
2022-08-11T19:23:26.200Z,57.90
2022-08-11T19:26:11.413Z,58.28
2022-08-11T19:28:58.397Z,59.03
2022-08-11T19:31:45.434Z,60.12
2022-08-11T19:34:34.939Z,61.31
2022-08-11T19:37:24.605Z,62.20
2022-08-11T19:40:20.504Z,64.30
2022-08-11T19:43:15.714Z,65.76
2022-08-11T19:46:11.829Z,65.94
2022-08-11T19:48:58.811Z,66.26
2022-08-11T19:51:45.636Z,67.93
2022-08-11T19:54:31.210Z,71.30
2022-08-11T19:57:17.143Z,71.31
2022-08-11T20:00:02.573Z,73.04
2022-08-11T20:02:47.976Z,73.52
2022-08-11T20:05:32.749Z,72.49
2022-08-11T20:08:19.083Z,75.47
2022-08-11T20:11:05.887Z,75.13
2022-08-11T20:13:51.771Z,73.60
2022-08-11T20:16:40.240Z,75.43
2022-08-11T20:19:55.370Z,75.27
2022-08-11T20:22:34.690Z,75.71
2022-08-11T20:25:21.352Z,77.18
2022-08-11T20:28:08.687Z,77.32
2022-08-11T20:30:55.156Z,76.95
2022-08-11T20:33:42.543Z,77.37
2022-08-11T20:36:29.195Z,75.24
2022-08-11T20:39:15.645Z,73.49
2022-08-11T20:42:01.307Z,73.85
2022-08-11T20:44:48.163Z,74.82
2022-08-11T20:47:48.421Z,73.58
2022-08-11T20:50:45.574Z,75.48
2022-08-11T20:53:36.097Z,75.77
2022-08-11T20:56:28.578Z,75.77
2022-08-11T20:59:17.680Z,75.82
2022-08-11T21:02:10.012Z,77.72
2022-08-11T21:04:57.135Z,79.01
2022-08-11T21:10:57.476Z,80.60
2022-08-11T21:13:51.225Z,82.38
2022-08-11T21:16:41.079Z,83.10
2022-08-11T21:20:01.555Z,83.16
2022-08-11T21:23:05.189Z,83.55
2022-08-11T21:25:55.326Z,84.49
2022-08-11T21:28:45.666Z,85.38
2022-08-11T21:31:31.407Z,86.24
2022-08-11T21:34:17.197Z,85.76
2022-08-11T21:37:04.009Z,87.46
2022-08-11T21:39:50.407Z,85.88
2022-08-11T21:42:37.846Z,87.54
2022-08-11T21:45:25.500Z,89.09
2022-08-11T21:48:13.907Z,89.32
2022-08-11T21:50:58.551Z,87.03
2022-08-11T21:53:46.092Z,87.23
2022-08-11T21:56:33.016Z,86.61
2022-08-11T21:59:18.795Z,87.12
2022-08-11T22:02:06.210Z,85.49
2022-08-11T22:04:54.695Z,85.89
2022-08-11T22:07:41.004Z,85.30
2022-08-11T22:10:40.689Z,85.75
2022-08-11T22:13:29.953Z,85.37
2022-08-11T22:16:15.272Z,85.86
2022-08-11T22:19:01.218Z,86.81
2022-08-11T22:21:57.006Z,86.32
2022-08-11T22:24:50.383Z,88.13
2022-08-11T22:27:35.643Z,88.10
2022-08-11T22:30:20.830Z,88.42
2022-08-11T22:33:06.252Z,90.31
2022-08-11T22:35:52.544Z,90.31
2022-08-11T22:38:38.804Z,90.55
2022-08-11T22:41:24.226Z,91.26
2022-08-11T22:44:09.410Z,91.87
2022-08-11T22:46:54.715Z,91.21
2022-08-11T22:49:57.415Z,93.11
2022-08-11T22:52:44.344Z,93.61
2022-08-11T22:55:30.668Z,93.49
2022-08-11T22:58:16.579Z,94.26
2022-08-11T23:01:01.951Z,96.93
2022-08-11T23:03:47.302Z,98.06
2022-08-11T23:06:33.497Z,100.00
2022-08-11T23:09:19.915Z,100.00
2022-08-11T23:12:06.965Z,100.00
2022-08-11T23:14:57.695Z,100.00
2022-08-11T23:17:43.951Z,100.00
2022-08-11T23:20:38.858Z,100.00
2022-08-11T23:23:30.743Z,100.00
2022-08-11T23:26:16.530Z,100.00
2022-08-11T23:29:05.059Z,100.00
2022-08-11T23:31:53.600Z,100.00
2022-08-11T23:35:04.162Z,100.00
2022-08-11T23:37:47.778Z,100.00
2022-08-11T23:40:32.710Z,100.00
2022-08-11T23:43:19.439Z,100.00
2022-08-11T23:46:04.396Z,100.00
2022-08-11T23:48:50.335Z,100.00
2022-08-11T23:51:41.372Z,100.00
2022-08-11T23:54:31.613Z,100.00
2022-08-11T23:57:20.349Z,100.00
